Huizum, Netherlands
Current Conditions -  °F | °C
As of 3:25 AM on Wednesday 22 Oct 2014 (Local Time) from EHLW Reporting Station
Scattered Clouds Scattered Clouds  
Wind Chill: 50°   Ceiling: Unl
Heat Index: 50°   Visibility: 6mi
Dew Point: 41°   Wind: 24mph
Humidity: 71%   Direction: 310°NW
Pressure: 29.74"   Gusts: NA
Location:  53.19°N, 5.81°E
Report Text: EHLW 220125Z AUTO 31021KT 9999 FEW034 SCT190 10/05 Q1007 BLU
Loading
Personal Weather Stations






























Interactive Weather Map
Tropical Storm Tracking
New forecast layout! Learn more

10-Day Weather Forecast

Advertisements
Track Severe Weather on mobile